sensor_id;sensor_type;location;lat;lon;timestamp;temperature;humidity
728;DHT22;347;48.780;9.158;2022-12-24T00:00:27;12.80;45.00
728;DHT22;347;48.780;9.158;2022-12-24T00:02:53;12.90;44.80
728;DHT22;347;48.780;9.158;2022-12-24T00:05:19;12.90;44.20
728;DHT22;347;48.780;9.158;2022-12-24T00:07:44;12.90;44.20
728;DHT22;347;48.780;9.158;2022-12-24T00:10:10;13.00;44.20
728;DHT22;347;48.780;9.158;2022-12-24T00:12:36;13.00;44.00
728;DHT22;347;48.780;9.158;2022-12-24T00:15:03;13.00;44.20
728;DHT22;347;48.780;9.158;2022-12-24T00:17:30;12.90;42.80
728;DHT22;347;48.780;9.158;2022-12-24T00:19:55;12.80;42.40
728;DHT22;347;48.780;9.158;2022-12-24T00:22:21;12.60;41.60
728;DHT22;347;48.780;9.158;2022-12-24T00:24:47;12.50;42.50
728;DHT22;347;48.780;9.158;2022-12-24T00:27:12;12.40;42.50
728;DHT22;347;48.780;9.158;2022-12-24T00:29:38;12.40;43.70
728;DHT22;347;48.780;9.158;2022-12-24T00:32:04;12.50;42.60
728;DHT22;347;48.780;9.158;2022-12-24T00:34:32;12.40;43.20
728;DHT22;347;48.780;9.158;2022-12-24T00:36:58;12.30;43.20
728;DHT22;347;48.780;9.158;2022-12-24T00:39:24;12.30;43.60
728;DHT22;347;48.780;9.158;2022-12-24T00:41:49;12.30;43.00
728;DHT22;347;48.780;9.158;2022-12-24T00:44:15;12.40;43.70
728;DHT22;347;48.780;9.158;2022-12-24T00:46:41;12.50;43.80
728;DHT22;347;48.780;9.158;2022-12-24T00:49:07;12.60;43.90
728;DHT22;347;48.780;9.158;2022-12-24T00:51:34;12.60;43.90
728;DHT22;347;48.780;9.158;2022-12-24T00:54:00;12.70;43.50
728;DHT22;347;48.780;9.158;2022-12-24T00:56:25;12.70;44.00
728;DHT22;347;48.780;9.158;2022-12-24T00:58:52;12.70;43.00
728;DHT22;347;48.780;9.158;2022-12-24T01:01:18;12.50;43.50
728;DHT22;347;48.780;9.158;2022-12-24T01:03:44;12.50;43.80
728;DHT22;347;48.780;9.158;2022-12-24T01:06:16;12.60;43.90
728;DHT22;347;48.780;9.158;2022-12-24T01:08:42;12.70;44.00
728;DHT22;347;48.780;9.158;2022-12-24T01:11:08;12.70;43.50
728;DHT22;347;48.780;9.158;2022-12-24T01:13:35;12.80;43.60
728;DHT22;347;48.780;9.158;2022-12-24T01:16:01;12.80;43.10
728;DHT22;347;48.780;9.158;2022-12-24T01:18:27;12.90;43.10
728;DHT22;347;48.780;9.158;2022-12-24T01:20:58;12.90;42.80
728;DHT22;347;48.780;9.158;2022-12-24T01:23:24;12.90;42.60
728;DHT22;347;48.780;9.158;2022-12-24T01:25:49;12.90;42.90
728;DHT22;347;48.780;9.158;2022-12-24T01:28:15;12.90;43.00
728;DHT22;347;48.780;9.158;2022-12-24T01:30:41;12.90;42.90
728;DHT22;347;48.780;9.158;2022-12-24T01:33:06;12.80;42.10
728;DHT22;347;48.780;9.158;2022-12-24T01:35:32;12.60;42.80
728;DHT22;347;48.780;9.158;2022-12-24T01:37:57;12.40;43.70
728;DHT22;347;48.780;9.158;2022-12-24T01:40:25;12.30;44.70
728;DHT22;347;48.780;9.158;2022-12-24T01:43:18;12.30;44.60
728;DHT22;347;48.780;9.158;2022-12-24T01:48:39;12.60;43.30
728;DHT22;347;48.780;9.158;2022-12-24T01:51:16;12.60;43.90
728;DHT22;347;48.780;9.158;2022-12-24T01:53:46;12.60;44.80
728;DHT22;347;48.780;9.158;2022-12-24T01:56:12;12.50;46.30
728;DHT22;347;48.780;9.158;2022-12-24T01:58:42;12.30;48.00
728;DHT22;347;48.780;9.158;2022-12-24T02:01:10;12.20;48.80
728;DHT22;347;48.780;9.158;2022-12-24T02:03:36;12.10;49.60
728;DHT22;347;48.780;9.158;2022-12-24T02:06:01;12.00;50.40
728;DHT22;347;48.780;9.158;2022-12-24T02:08:27;11.90;51.50
728;DHT22;347;48.780;9.158;2022-12-24T02:11:16;11.90;52.00
728;DHT22;347;48.780;9.158;2022-12-24T02:13:45;11.80;52.40
728;DHT22;347;48.780;9.158;2022-12-24T02:16:40;11.70;52.90
728;DHT22;347;48.780;9.158;2022-12-24T02:29:59;11.60;53.70
728;DHT22;347;48.780;9.158;2022-12-24T02:35:11;11.70;53.70
728;DHT22;347;48.780;9.158;2022-12-24T02:38:03;11.80;53.00
728;DHT22;347;48.780;9.158;2022-12-24T02:40:39;11.90;53.10
728;DHT22;347;48.780;9.158;2022-12-24T02:43:12;12.00;52.20
728;DHT22;347;48.780;9.158;2022-12-24T02:45:41;12.00;52.80
728;DHT22;347;48.780;9.158;2022-12-24T02:48:11;12.00;53.00
728;DHT22;347;48.780;9.158;2022-12-24T02:50:37;12.10;53.20
728;DHT22;347;48.780;9.158;2022-12-24T02:53:04;12.10;51.60
728;DHT22;347;48.780;9.158;2022-12-24T03:07:16;12.30;50.70
728;DHT22;347;48.780;9.158;2022-12-24T03:10:05;12.40;50.80
728;DHT22;347;48.780;9.158;2022-12-24T03:12:38;12.40;50.30
728;DHT22;347;48.780;9.158;2022-12-24T03:15:07;12.40;50.20
728;DHT22;347;48.780;9.158;2022-12-24T03:17:35;12.50;50.00
728;DHT22;347;48.780;9.158;2022-12-24T03:20:03;12.50;49.60
728;DHT22;347;48.780;9.158;2022-12-24T03:22:31;12.50;49.20
728;DHT22;347;48.780;9.158;2022-12-24T03:24:57;12.50;49.00
728;DHT22;347;48.780;9.158;2022-12-24T03:27:25;12.50;49.00
728;DHT22;347;48.780;9.158;2022-12-24T03:29:51;12.50;48.70
728;DHT22;347;48.780;9.158;2022-12-24T03:32:29;12.50;48.50
728;DHT22;347;48.780;9.158;2022-12-24T03:34:55;12.50;48.90
728;DHT22;347;48.780;9.158;2022-12-24T03:37:21;12.50;48.20
728;DHT22;347;48.780;9.158;2022-12-24T03:39:46;12.50;47.50
728;DHT22;347;48.780;9.158;2022-12-24T03:42:12;12.50;48.20
728;DHT22;347;48.780;9.158;2022-12-24T03:44:37;12.50;48.20
728;DHT22;347;48.780;9.158;2022-12-24T03:47:03;12.40;47.30
728;DHT22;347;48.780;9.158;2022-12-24T03:49:28;12.10;49.00
728;DHT22;347;48.780;9.158;2022-12-24T03:51:54;11.90;49.40
728;DHT22;347;48.780;9.158;2022-12-24T03:54:20;11.80;50.10
728;DHT22;347;48.780;9.158;2022-12-24T03:56:45;11.90;50.80
728;DHT22;347;48.780;9.158;2022-12-24T03:59:11;11.90;50.80
728;DHT22;347;48.780;9.158;2022-12-24T04:01:36;12.10;50.80
728;DHT22;347;48.780;9.158;2022-12-24T04:04:02;12.20;50.40
728;DHT22;347;48.780;9.158;2022-12-24T04:06:27;12.20;49.80
728;DHT22;347;48.780;9.158;2022-12-24T04:08:53;12.30;49.70
728;DHT22;347;48.780;9.158;2022-12-24T04:11:18;12.30;49.20
728;DHT22;347;48.780;9.158;2022-12-24T04:13:44;12.40;49.00
728;DHT22;347;48.780;9.158;2022-12-24T04:16:13;12.30;47.70
728;DHT22;347;48.780;9.158;2022-12-24T04:18:39;12.00;48.60
728;DHT22;347;48.780;9.158;2022-12-24T04:21:05;11.90;49.70
728;DHT22;347;48.780;9.158;2022-12-24T04:23:33;11.90;50.40
728;DHT22;347;48.780;9.158;2022-12-24T04:26:03;12.00;50.40
728;DHT22;347;48.780;9.158;2022-12-24T04:28:29;12.20;50.40
728;DHT22;347;48.780;9.158;2022-12-24T04:31:03;12.20;49.80
728;DHT22;347;48.780;9.158;2022-12-24T04:33:29;12.30;49.80
728;DHT22;347;48.780;9.158;2022-12-24T04:35:59;12.30;49.00
728;DHT22;347;48.780;9.158;2022-12-24T04:38:26;12.20;49.00
728;DHT22;347;48.780;9.158;2022-12-24T04:41:19;12.10;49.00
728;DHT22;347;48.780;9.158;2022-12-24T04:43:45;12.00;48.90
728;DHT22;347;48.780;9.158;2022-12-24T04:46:13;12.00;50.00
728;DHT22;347;48.780;9.158;2022-12-24T04:48:39;12.10;50.20
728;DHT22;347;48.780;9.158;2022-12-24T04:51:06;12.20;49.70
728;DHT22;347;48.780;9.158;2022-12-24T04:53:33;12.40;49.60
728;DHT22;347;48.780;9.158;2022-12-24T04:55:59;12.60;48.60
728;DHT22;347;48.780;9.158;2022-12-24T04:58:25;12.60;48.20
728;DHT22;347;48.780;9.158;2022-12-24T05:00:51;12.70;47.70
728;DHT22;347;48.780;9.158;2022-12-24T05:03:16;12.70;47.10
728;DHT22;347;48.780;9.158;2022-12-24T05:05:42;12.80;46.60
728;DHT22;347;48.780;9.158;2022-12-24T05:08:07;12.80;45.80
728;DHT22;347;48.780;9.158;2022-12-24T05:10:33;12.80;45.90
728;DHT22;347;48.780;9.158;2022-12-24T05:12:59;12.80;45.20
728;DHT22;347;48.780;9.158;2022-12-24T05:15:25;12.80;44.10
728;DHT22;347;48.780;9.158;2022-12-24T05:17:50;12.50;43.80
728;DHT22;347;48.780;9.158;2022-12-24T05:20:16;12.20;44.50
728;DHT22;347;48.780;9.158;2022-12-24T05:22:41;12.10;45.50
728;DHT22;347;48.780;9.158;2022-12-24T05:25:32;12.00;45.40
728;DHT22;347;48.780;9.158;2022-12-24T05:28:19;11.80;46.00
728;DHT22;347;48.780;9.158;2022-12-24T05:30:44;11.70;46.00
728;DHT22;347;48.780;9.158;2022-12-24T05:33:10;11.60;45.60
728;DHT22;347;48.780;9.158;2022-12-24T05:35:35;11.60;46.50
728;DHT22;347;48.780;9.158;2022-12-24T05:38:01;11.80;47.10
728;DHT22;347;48.780;9.158;2022-12-24T05:40:26;11.80;44.20
728;DHT22;347;48.780;9.158;2022-12-24T05:42:52;11.90;44.50
728;DHT22;347;48.780;9.158;2022-12-24T05:45:17;12.00;45.10
728;DHT22;347;48.780;9.158;2022-12-24T05:47:43;11.90;43.30
728;DHT22;347;48.780;9.158;2022-12-24T05:50:09;12.00;45.00
728;DHT22;347;48.780;9.158;2022-12-24T05:52:34;12.00;43.40
728;DHT22;347;48.780;9.158;2022-12-24T05:55:00;11.90;43.30
728;DHT22;347;48.780;9.158;2022-12-24T05:57:25;11.70;43.10
728;DHT22;347;48.780;9.158;2022-12-24T05:59:51;11.70;43.40
728;DHT22;347;48.780;9.158;2022-12-24T06:02:17;11.70;44.40
728;DHT22;347;48.780;9.158;2022-12-24T06:04:42;11.90;44.90
728;DHT22;347;48.780;9.158;2022-12-24T06:07:08;12.00;44.30
728;DHT22;347;48.780;9.158;2022-12-24T06:09:33;12.10;44.20
728;DHT22;347;48.780;9.158;2022-12-24T06:11:59;12.20;43.90
728;DHT22;347;48.780;9.158;2022-12-24T06:14:24;12.20;43.50
728;DHT22;347;48.780;9.158;2022-12-24T06:16:50;12.30;43.50
728;DHT22;347;48.780;9.158;2022-12-24T06:19:16;12.30;43.60
728;DHT22;347;48.780;9.158;2022-12-24T06:21:41;12.40;43.40
728;DHT22;347;48.780;9.158;2022-12-24T06:24:07;12.40;43.10
728;DHT22;347;48.780;9.158;2022-12-24T06:26:33;12.40;42.60
728;DHT22;347;48.780;9.158;2022-12-24T06:28:58;12.40;42.70
728;DHT22;347;48.780;9.158;2022-12-24T06:31:24;12.40;42.20
728;DHT22;347;48.780;9.158;2022-12-24T06:33:50;12.40;42.20
728;DHT22;347;48.780;9.158;2022-12-24T06:36:19;12.30;42.50
728;DHT22;347;48.780;9.158;2022-12-24T06:38:46;12.30;42.20
728;DHT22;347;48.780;9.158;2022-12-24T06:41:11;12.20;42.40
728;DHT22;347;48.780;9.158;2022-12-24T06:43:37;12.20;43.40
728;DHT22;347;48.780;9.158;2022-12-24T06:46:03;12.30;42.80
728;DHT22;347;48.780;9.158;2022-12-24T06:48:29;12.20;43.20
728;DHT22;347;48.780;9.158;2022-12-24T06:50:54;12.30;43.60
728;DHT22;347;48.780;9.158;2022-12-24T06:53:20;12.20;43.50
728;DHT22;347;48.780;9.158;2022-12-24T06:55:47;12.20;43.40
728;DHT22;347;48.780;9.158;2022-12-24T06:58:12;12.20;43.50
728;DHT22;347;48.780;9.158;2022-12-24T07:00:38;12.20;43.50
728;DHT22;347;48.780;9.158;2022-12-24T07:03:04;12.20;43.50
728;DHT22;347;48.780;9.158;2022-12-24T07:05:29;12.20;43.50
728;DHT22;347;48.780;9.158;2022-12-24T07:07:55;11.90;43.60
728;DHT22;347;48.780;9.158;2022-12-24T07:10:21;11.70;45.10
728;DHT22;347;48.780;9.158;2022-12-24T07:12:46;11.70;45.90
728;DHT22;347;48.780;9.158;2022-12-24T07:15:13;11.70;45.90
728;DHT22;347;48.780;9.158;2022-12-24T07:17:39;11.90;45.80
728;DHT22;347;48.780;9.158;2022-12-24T07:20:05;11.90;45.60
728;DHT22;347;48.780;9.158;2022-12-24T07:22:32;12.00;44.80
728;DHT22;347;48.780;9.158;2022-12-24T07:24:58;12.10;44.40
728;DHT22;347;48.780;9.158;2022-12-24T07:27:23;12.10;44.50
728;DHT22;347;48.780;9.158;2022-12-24T07:29:49;12.20;43.50
728;DHT22;347;48.780;9.158;2022-12-24T07:32:14;12.10;43.50
728;DHT22;347;48.780;9.158;2022-12-24T07:34:40;12.20;43.50
728;DHT22;347;48.780;9.158;2022-12-24T07:37:06;12.30;43.70
728;DHT22;347;48.780;9.158;2022-12-24T07:39:32;12.30;43.60
728;DHT22;347;48.780;9.158;2022-12-24T07:41:58;12.30;43.70
728;DHT22;347;48.780;9.158;2022-12-24T07:44:23;12.30;43.70
728;DHT22;347;48.780;9.158;2022-12-24T07:46:49;12.30;43.60
728;DHT22;347;48.780;9.158;2022-12-24T07:49:15;12.30;43.60
728;DHT22;347;48.780;9.158;2022-12-24T07:51:41;12.20;43.60
728;DHT22;347;48.780;9.158;2022-12-24T07:54:06;12.20;43.50
728;DHT22;347;48.780;9.158;2022-12-24T07:56:32;12.20;43.50
728;DHT22;347;48.780;9.158;2022-12-24T07:58:58;12.20;43.00
728;DHT22;347;48.780;9.158;2022-12-24T08:01:23;12.20;43.20
728;DHT22;347;48.780;9.158;2022-12-24T08:03:49;12.20;43.20
728;DHT22;347;48.780;9.158;2022-12-24T08:06:19;12.30;43.60
728;DHT22;347;48.780;9.158;2022-12-24T08:08:45;12.30;43.60
728;DHT22;347;48.780;9.158;2022-12-24T08:11:11;12.30;43.60
728;DHT22;347;48.780;9.158;2022-12-24T08:13:36;12.30;44.20
728;DHT22;347;48.780;9.158;2022-12-24T08:16:02;12.30;44.40
728;DHT22;347;48.780;9.158;2022-12-24T08:18:28;12.20;44.20
728;DHT22;347;48.780;9.158;2022-12-24T08:20:53;12.30;44.50
728;DHT22;347;48.780;9.158;2022-12-24T08:23:19;12.20;44.50
728;DHT22;347;48.780;9.158;2022-12-24T08:25:46;12.20;44.90
728;DHT22;347;48.780;9.158;2022-12-24T08:28:13;12.20;44.40
728;DHT22;347;48.780;9.158;2022-12-24T08:30:39;12.20;44.40
728;DHT22;347;48.780;9.158;2022-12-24T08:33:05;12.20;43.50
728;DHT22;347;48.780;9.158;2022-12-24T08:35:30;12.30;43.70
728;DHT22;347;48.780;9.158;2022-12-24T08:37:56;12.30;43.20
728;DHT22;347;48.780;9.158;2022-12-24T08:40:22;12.40;43.00
728;DHT22;347;48.780;9.158;2022-12-24T08:42:48;12.30;42.90
728;DHT22;347;48.780;9.158;2022-12-24T08:45:14;12.10;41.70
728;DHT22;347;48.780;9.158;2022-12-24T08:47:40;12.10;43.00
728;DHT22;347;48.780;9.158;2022-12-24T08:50:06;12.00;42.60
728;DHT22;347;48.780;9.158;2022-12-24T08:52:32;12.10;43.40
728;DHT22;347;48.780;9.158;2022-12-24T08:54:58;12.20;43.50
728;DHT22;347;48.780;9.158;2022-12-24T08:57:23;12.00;41.20
728;DHT22;347;48.780;9.158;2022-12-24T08:59:49;11.90;42.40
728;DHT22;347;48.780;9.158;2022-12-24T09:02:15;12.00;43.40
728;DHT22;347;48.780;9.158;2022-12-24T09:04:40;12.10;43.40
728;DHT22;347;48.780;9.158;2022-12-24T09:07:07;12.10;43.40
728;DHT22;347;48.780;9.158;2022-12-24T09:09:33;12.20;43.60
728;DHT22;347;48.780;9.158;2022-12-24T09:11:59;12.30;43.20
728;DHT22;347;48.780;9.158;2022-12-24T09:14:24;12.10;40.80
728;DHT22;347;48.780;9.158;2022-12-24T09:16:50;12.00;41.50
728;DHT22;347;48.780;9.158;2022-12-24T09:19:15;11.90;42.00
728;DHT22;347;48.780;9.158;2022-12-24T09:21:41;11.80;41.90
728;DHT22;347;48.780;9.158;2022-12-24T09:24:07;11.80;42.00
728;DHT22;347;48.780;9.158;2022-12-24T09:26:32;11.70;42.80
728;DHT22;347;48.780;9.158;2022-12-24T09:29:00;11.50;42.90
728;DHT22;347;48.780;9.158;2022-12-24T09:31:26;11.60;42.60
728;DHT22;347;48.780;9.158;2022-12-24T09:33:52;11.60;43.10
728;DHT22;347;48.780;9.158;2022-12-24T09:36:18;11.60;42.20
728;DHT22;347;48.780;9.158;2022-12-24T09:38:43;11.50;42.70
728;DHT22;347;48.780;9.158;2022-12-24T09:43:44;11.30;42.20
728;DHT22;347;48.780;9.158;2022-12-24T09:46:21;11.30;43.40
728;DHT22;347;48.780;9.158;2022-12-24T09:48:53;11.40;42.80
728;DHT22;347;48.780;9.158;2022-12-24T09:51:28;11.30;42.20
728;DHT22;347;48.780;9.158;2022-12-24T09:56:30;11.40;42.90
728;DHT22;347;48.780;9.158;2022-12-24T09:59:02;11.30;42.60
728;DHT22;347;48.780;9.158;2022-12-24T10:01:30;11.40;42.80
728;DHT22;347;48.780;9.158;2022-12-24T10:04:07;11.40;42.40
728;DHT22;347;48.780;9.158;2022-12-24T10:10:29;11.50;42.90
728;DHT22;347;48.780;9.158;2022-12-24T10:12:53;11.60;42.60
728;DHT22;347;48.780;9.158;2022-12-24T10:15:55;11.60;41.10
728;DHT22;347;48.780;9.158;2022-12-24T10:18:53;11.60;40.80
728;DHT22;347;48.780;9.158;2022-12-24T10:24:33;11.60;40.90
728;DHT22;347;48.780;9.158;2022-12-24T10:27:12;11.70;40.80
728;DHT22;347;48.780;9.158;2022-12-24T10:29:52;11.70;40.50
728;DHT22;347;48.780;9.158;2022-12-24T10:32:30;11.70;40.80
728;DHT22;347;48.780;9.158;2022-12-24T10:35:31;11.80;40.30
728;DHT22;347;48.780;9.158;2022-12-24T10:38:06;11.80;40.80
728;DHT22;347;48.780;9.158;2022-12-24T10:40:59;11.90;40.60
728;DHT22;347;48.780;9.158;2022-12-24T10:43:28;12.00;40.70
728;DHT22;347;48.780;9.158;2022-12-24T10:45:58;12.10;41.40
728;DHT22;347;48.780;9.158;2022-12-24T10:48:26;12.20;40.40
728;DHT22;347;48.780;9.158;2022-12-24T10:50:59;12.40;40.90
728;DHT22;347;48.780;9.158;2022-12-24T10:56:05;12.60;41.60
728;DHT22;347;48.780;9.158;2022-12-24T10:58:31;12.70;41.60
728;DHT22;347;48.780;9.158;2022-12-24T11:00:57;12.80;41.40
728;DHT22;347;48.780;9.158;2022-12-24T11:03:31;12.90;41.50
728;DHT22;347;48.780;9.158;2022-12-24T11:08:27;12.70;37.20
728;DHT22;347;48.780;9.158;2022-12-24T11:10:58;12.70;38.50
728;DHT22;347;48.780;9.158;2022-12-24T11:16:06;12.80;37.40
728;DHT22;347;48.780;9.158;2022-12-24T11:18:35;12.90;39.30
728;DHT22;347;48.780;9.158;2022-12-24T11:21:02;12.90;40.60
728;DHT22;347;48.780;9.158;2022-12-24T11:23:28;13.00;40.20
728;DHT22;347;48.780;9.158;2022-12-24T11:25:55;13.10;40.40
728;DHT22;347;48.780;9.158;2022-12-24T11:28:28;13.10;40.70
728;DHT22;347;48.780;9.158;2022-12-24T11:33:24;13.00;37.50
728;DHT22;347;48.780;9.158;2022-12-24T11:35:56;12.80;36.60
728;DHT22;347;48.780;9.158;2022-12-24T11:38:26;12.80;37.60
728;DHT22;347;48.780;9.158;2022-12-24T11:41:09;12.80;37.40
728;DHT22;347;48.780;9.158;2022-12-24T11:43:42;12.70;36.90
728;DHT22;347;48.780;9.158;2022-12-24T11:46:13;12.80;38.50
728;DHT22;347;48.780;9.158;2022-12-24T11:48:40;12.70;37.40
728;DHT22;347;48.780;9.158;2022-12-24T11:51:16;12.80;36.90
728;DHT22;347;48.780;9.158;2022-12-24T11:53:49;12.70;38.00
728;DHT22;347;48.780;9.158;2022-12-24T11:56:44;12.60;37.30
728;DHT22;347;48.780;9.158;2022-12-24T11:59:26;12.60;37.80
728;DHT22;347;48.780;9.158;2022-12-24T12:01:57;12.50;37.30
728;DHT22;347;48.780;9.158;2022-12-24T12:04:27;12.70;38.40
728;DHT22;347;48.780;9.158;2022-12-24T12:07:03;12.70;37.50
728;DHT22;347;48.780;9.158;2022-12-24T12:09:33;12.70;37.70
728;DHT22;347;48.780;9.158;2022-12-24T12:12:11;12.70;37.60
728;DHT22;347;48.780;9.158;2022-12-24T12:14:44;12.70;38.00
728;DHT22;347;48.780;9.158;2022-12-24T12:20:09;12.70;37.40
728;DHT22;347;48.780;9.158;2022-12-24T12:22:52;12.80;38.30
728;DHT22;347;48.780;9.158;2022-12-24T12:25:26;12.80;38.20
728;DHT22;347;48.780;9.158;2022-12-24T12:27:55;12.80;37.30
728;DHT22;347;48.780;9.158;2022-12-24T12:30:22;12.90;37.60
728;DHT22;347;48.780;9.158;2022-12-24T12:35:38;12.90;37.40
728;DHT22;347;48.780;9.158;2022-12-24T12:38:09;12.90;37.60
728;DHT22;347;48.780;9.158;2022-12-24T12:43:55;12.90;38.00
728;DHT22;347;48.780;9.158;2022-12-24T12:49:31;13.10;38.40
728;DHT22;347;48.780;9.158;2022-12-24T12:55:06;13.30;37.90
728;DHT22;347;48.780;9.158;2022-12-24T12:57:41;13.40;37.90
728;DHT22;347;48.780;9.158;2022-12-24T13:00:12;13.50;37.70
728;DHT22;347;48.780;9.158;2022-12-24T13:08:22;13.40;36.10
728;DHT22;347;48.780;9.158;2022-12-24T13:11:16;13.50;36.50
728;DHT22;347;48.780;9.158;2022-12-24T13:16:20;13.30;34.90
728;DHT22;347;48.780;9.158;2022-12-24T13:21:55;13.30;34.40
728;DHT22;347;48.780;9.158;2022-12-24T13:24:28;13.40;34.70
728;DHT22;347;48.780;9.158;2022-12-24T13:27:03;13.40;33.90
728;DHT22;347;48.780;9.158;2022-12-24T13:29:59;13.40;34.50
728;DHT22;347;48.780;9.158;2022-12-24T13:34:52;13.50;35.30
728;DHT22;347;48.780;9.158;2022-12-24T13:37:37;13.50;35.10
728;DHT22;347;48.780;9.158;2022-12-24T13:40:14;13.50;35.50
728;DHT22;347;48.780;9.158;2022-12-24T13:53:05;13.40;34.70
728;DHT22;347;48.780;9.158;2022-12-24T13:55:34;13.40;35.00
728;DHT22;347;48.780;9.158;2022-12-24T13:58:04;13.40;35.10
728;DHT22;347;48.780;9.158;2022-12-24T14:00:41;13.50;35.60
728;DHT22;347;48.780;9.158;2022-12-24T14:08:32;13.50;35.80
728;DHT22;347;48.780;9.158;2022-12-24T14:16:11;13.40;36.00
728;DHT22;347;48.780;9.158;2022-12-24T14:18:39;13.50;36.40
728;DHT22;347;48.780;9.158;2022-12-24T14:21:06;13.40;36.30
728;DHT22;347;48.780;9.158;2022-12-24T14:23:53;13.40;36.20
728;DHT22;347;48.780;9.158;2022-12-24T14:26:23;13.40;36.60
728;DHT22;347;48.780;9.158;2022-12-24T14:29:04;13.40;37.00
728;DHT22;347;48.780;9.158;2022-12-24T14:31:30;13.40;37.30
728;DHT22;347;48.780;9.158;2022-12-24T14:34:07;13.50;38.30
728;DHT22;347;48.780;9.158;2022-12-24T14:36:34;13.60;38.50
728;DHT22;347;48.780;9.158;2022-12-24T14:39:01;13.60;36.80
728;DHT22;347;48.780;9.158;2022-12-24T14:41:35;13.60;37.60
728;DHT22;347;48.780;9.158;2022-12-24T14:46:57;13.60;38.00
728;DHT22;347;48.780;9.158;2022-12-24T14:49:52;13.60;38.10
728;DHT22;347;48.780;9.158;2022-12-24T14:52:41;13.50;39.20
728;DHT22;347;48.780;9.158;2022-12-24T14:55:41;13.50;39.00
728;DHT22;347;48.780;9.158;2022-12-24T14:58:32;13.50;39.00
728;DHT22;347;48.780;9.158;2022-12-24T15:01:24;13.50;38.10
728;DHT22;347;48.780;9.158;2022-12-24T15:04:13;13.60;37.40
728;DHT22;347;48.780;9.158;2022-12-24T15:06:48;13.50;36.20
728;DHT22;347;48.780;9.158;2022-12-24T15:09:26;13.50;36.10
728;DHT22;347;48.780;9.158;2022-12-24T15:11:56;13.50;36.60
728;DHT22;347;48.780;9.158;2022-12-24T15:14:24;13.50;37.00
728;DHT22;347;48.780;9.158;2022-12-24T15:17:04;13.50;37.30
728;DHT22;347;48.780;9.158;2022-12-24T15:19:35;13.60;37.40
728;DHT22;347;48.780;9.158;2022-12-24T15:22:03;13.50;37.60
728;DHT22;347;48.780;9.158;2022-12-24T15:24:42;13.60;38.20
728;DHT22;347;48.780;9.158;2022-12-24T15:27:16;13.60;38.30
728;DHT22;347;48.780;9.158;2022-12-24T15:29:43;13.60;38.10
728;DHT22;347;48.780;9.158;2022-12-24T15:32:12;13.60;38.30
728;DHT22;347;48.780;9.158;2022-12-24T15:34:41;13.50;38.40
728;DHT22;347;48.780;9.158;2022-12-24T15:37:13;13.50;38.30
728;DHT22;347;48.780;9.158;2022-12-24T15:39:40;13.50;38.60
728;DHT22;347;48.780;9.158;2022-12-24T15:42:07;13.40;39.00
728;DHT22;347;48.780;9.158;2022-12-24T15:44:48;13.40;39.50
728;DHT22;347;48.780;9.158;2022-12-24T15:47:22;13.40;39.50
728;DHT22;347;48.780;9.158;2022-12-24T15:49:50;13.30;39.60
728;DHT22;347;48.780;9.158;2022-12-24T15:52:18;13.40;39.70
728;DHT22;347;48.780;9.158;2022-12-24T15:54:48;13.30;39.50
728;DHT22;347;48.780;9.158;2022-12-24T15:59:52;13.20;40.20
728;DHT22;347;48.780;9.158;2022-12-24T16:02:39;13.20;40.10
728;DHT22;347;48.780;9.158;2022-12-24T16:08:44;13.10;40.10
728;DHT22;347;48.780;9.158;2022-12-24T16:10:47;13.20;39.80
728;DHT22;347;48.780;9.158;2022-12-24T16:13:40;13.20;39.60
728;DHT22;347;48.780;9.158;2022-12-24T16:16:09;13.10;39.30
728;DHT22;347;48.780;9.158;2022-12-24T16:21:34;13.10;39.40
728;DHT22;347;48.780;9.158;2022-12-24T16:26:38;13.10;40.00
728;DHT22;347;48.780;9.158;2022-12-24T16:29:04;13.10;39.60
728;DHT22;347;48.780;9.158;2022-12-24T16:31:35;13.10;39.70
728;DHT22;347;48.780;9.158;2022-12-24T16:34:02;13.10;39.40
728;DHT22;347;48.780;9.158;2022-12-24T16:36:29;13.10;38.70
728;DHT22;347;48.780;9.158;2022-12-24T16:38:56;13.10;38.80
728;DHT22;347;48.780;9.158;2022-12-24T16:41:40;13.10;38.70
728;DHT22;347;48.780;9.158;2022-12-24T16:44:25;13.10;39.00
728;DHT22;347;48.780;9.158;2022-12-24T16:46:52;13.10;38.60
728;DHT22;347;48.780;9.158;2022-12-24T16:49:19;13.10;39.00
728;DHT22;347;48.780;9.158;2022-12-24T16:51:45;13.10;39.20
728;DHT22;347;48.780;9.158;2022-12-24T16:54:12;13.10;39.00
728;DHT22;347;48.780;9.158;2022-12-24T16:56:41;13.10;38.60
728;DHT22;347;48.780;9.158;2022-12-24T16:59:16;13.10;38.60
728;DHT22;347;48.780;9.158;2022-12-24T17:01:43;13.10;38.70
728;DHT22;347;48.780;9.158;2022-12-24T17:04:08;13.10;38.70
728;DHT22;347;48.780;9.158;2022-12-24T17:06:34;13.10;38.30
728;DHT22;347;48.780;9.158;2022-12-24T17:09:00;13.10;38.30
728;DHT22;347;48.780;9.158;2022-12-24T17:11:25;13.20;38.20
728;DHT22;347;48.780;9.158;2022-12-24T17:13:51;13.10;38.20
728;DHT22;347;48.780;9.158;2022-12-24T17:16:17;13.10;38.40
728;DHT22;347;48.780;9.158;2022-12-24T17:18:43;13.10;38.70
728;DHT22;347;48.780;9.158;2022-12-24T17:21:15;13.10;38.90
728;DHT22;347;48.780;9.158;2022-12-24T17:23:44;13.10;38.80
728;DHT22;347;48.780;9.158;2022-12-24T17:26:10;13.10;38.80
728;DHT22;347;48.780;9.158;2022-12-24T17:28:37;13.10;38.80
728;DHT22;347;48.780;9.158;2022-12-24T17:31:08;13.10;39.20
728;DHT22;347;48.780;9.158;2022-12-24T17:33:37;13.10;39.30
728;DHT22;347;48.780;9.158;2022-12-24T17:36:03;13.10;39.50
728;DHT22;347;48.780;9.158;2022-12-24T17:38:28;13.10;39.30
728;DHT22;347;48.780;9.158;2022-12-24T17:41:06;13.10;39.30
728;DHT22;347;48.780;9.158;2022-12-24T17:43:32;13.10;39.40
728;DHT22;347;48.780;9.158;2022-12-24T17:46:11;13.10;39.40
728;DHT22;347;48.780;9.158;2022-12-24T17:48:38;13.00;39.20
728;DHT22;347;48.780;9.158;2022-12-24T17:51:11;13.00;39.10
728;DHT22;347;48.780;9.158;2022-12-24T17:53:39;13.00;38.90
728;DHT22;347;48.780;9.158;2022-12-24T17:56:06;13.00;38.70
728;DHT22;347;48.780;9.158;2022-12-24T17:58:33;13.00;38.80
728;DHT22;347;48.780;9.158;2022-12-24T18:00:59;13.00;38.50
728;DHT22;347;48.780;9.158;2022-12-24T18:03:25;13.00;38.10
728;DHT22;347;48.780;9.158;2022-12-24T18:05:51;12.80;36.70
728;DHT22;347;48.780;9.158;2022-12-24T18:08:18;12.80;37.20
728;DHT22;347;48.780;9.158;2022-12-24T18:10:44;12.70;37.30
728;DHT22;347;48.780;9.158;2022-12-24T18:13:10;12.70;38.20
728;DHT22;347;48.780;9.158;2022-12-24T18:15:38;12.70;38.40
728;DHT22;347;48.780;9.158;2022-12-24T18:18:05;12.80;38.40
728;DHT22;347;48.780;9.158;2022-12-24T18:20:33;12.90;38.10
728;DHT22;347;48.780;9.158;2022-12-24T18:22:59;12.70;35.70
728;DHT22;347;48.780;9.158;2022-12-24T18:25:24;12.60;36.40
728;DHT22;347;48.780;9.158;2022-12-24T18:27:50;12.30;36.80
728;DHT22;347;48.780;9.158;2022-12-24T18:30:16;12.20;37.10
728;DHT22;347;48.780;9.158;2022-12-24T18:32:42;12.20;37.80
728;DHT22;347;48.780;9.158;2022-12-24T18:35:08;12.10;38.30
728;DHT22;347;48.780;9.158;2022-12-24T18:37:33;12.00;38.50
728;DHT22;347;48.780;9.158;2022-12-24T18:39:59;12.00;38.80
728;DHT22;347;48.780;9.158;2022-12-24T18:42:24;12.00;39.30